Time;durP1;ratioP1;P1;durP2;ratioP2;P2;SDS_P1;SDS_P2;PMS_P1;PMS_P2;Temp;Humidity;BMP_temperature;BMP_pressure;BME280_temperature;BME280_humidity;BME280_pressure;Samples;Min_cycle;Max_cycle;Signal;HPM_P1;HPM_P2
2023/10/19 00:00:45;;;;;;;27.02;6.85;;;;;;;17.60;98.95;98925.16;5054262;28;20769;-66
2023/10/19 00:03:13;;;;;;;19.80;4.88;;;;;;;17.82;98.22;98915.50;5035387;28;20052;-67
2023/10/19 00:05:41;;;;;;;15.43;3.42;;;;;;;17.51;98.40;98916.44;5031738;28;20045;-67
2023/10/19 00:08:16;;;;;;;13.75;2.72;;;;;;;17.44;100.00;98916.41;5054561;28;20041;-67
2023/10/19 00:11:02;;;;;;;13.13;2.10;;;;;;;17.33;100.00;98915.69;5050405;28;20049;-67
2023/10/19 00:13:37;;;;;;;14.35;2.17;;;;;;;17.29;100.00;98914.88;5030761;28;20068;-66
2023/10/19 00:16:16;;;;;;;18.08;2.80;;;;;;;17.22;100.00;98914.91;5055293;28;20800;-68
2023/10/19 00:18:48;;;;;;;15.32;3.50;;;;;;;17.22;100.00;98921.28;5048899;28;20437;-67
2023/10/19 00:21:20;;;;;;;18.83;4.30;;;;;;;17.23;100.00;98920.06;5054826;28;20045;-67
2023/10/19 00:23:48;;;;;;;14.30;3.10;;;;;;;17.28;100.00;98925.22;5051952;28;20515;-67
2023/10/19 00:26:19;;;;;;;18.52;2.33;;;;;;;17.24;100.00;98920.88;5054813;28;20037;-66
2023/10/19 00:29:00;;;;;;;17.95;2.53;;;;;;;17.20;100.00;98929.22;5037125;28;20060;-66
2023/10/19 00:31:27;;;;;;;13.68;2.00;;;;;;;17.42;100.00;98921.59;5054693;28;20053;-68
2023/10/19 00:33:57;;;;;;;13.75;2.22;;;;;;;17.39;100.00;98925.19;5054178;28;20045;-67
2023/10/19 00:36:26;;;;;;;10.88;2.33;;;;;;;17.39;100.00;98917.66;5033566;28;20049;-68
2023/10/19 00:38:53;;;;;;;18.33;2.83;;;;;;;17.51;100.00;98928.38;5034150;28;20489;-67
2023/10/19 00:41:29;;;;;;;16.95;2.72;;;;;;;17.40;100.00;98913.66;5034411;28;20049;-68
2023/10/19 00:44:03;;;;;;;11.25;2.33;;;;;;;17.42;100.00;98910.47;5031416;28;20499;-67
2023/10/19 00:46:32;;;;;;;17.10;2.83;;;;;;;17.50;100.00;98910.09;5036196;28;20052;-67
2023/10/19 00:49:05;;;;;;;18.57;2.80;;;;;;;17.49;100.00;98897.34;5053944;28;20056;-67
2023/10/19 00:54:12;;;;;;;16.35;2.38;;;;;;;17.47;100.00;98887.84;5054101;28;20045;-67
2023/10/19 00:56:46;;;;;;;20.45;3.03;;;;;;;17.54;100.00;98880.22;5054349;28;20509;-68
2023/10/19 00:59:20;;;;;;;19.48;2.92;;;;;;;17.45;100.00;98890.19;5041950;28;20424;-67
2023/10/19 01:01:50;;;;;;;18.67;3.03;;;;;;;17.33;100.00;98885.06;5034519;28;20060;-66
2023/10/19 01:04:22;;;;;;;19.40;3.17;;;;;;;17.38;100.00;98893.78;5046670;28;20049;-66
2023/10/19 01:07:11;;;;;;;17.60;2.65;;;;;;;17.31;100.00;98891.00;5036871;28;20045;-67
2023/10/19 01:09:40;;;;;;;22.47;3.57;;;;;;;17.28;100.00;98877.91;5052592;28;20040;-65
2023/10/19 01:12:32;;;;;;;19.35;3.53;;;;;;;17.32;100.00;98881.47;5032054;28;20287;-67
2023/10/19 01:15:07;;;;;;;18.58;3.75;;;;;;;17.27;100.00;98873.56;5053771;28;20052;-67
2023/10/19 01:17:38;;;;;;;22.33;3.75;;;;;;;17.41;100.00;98867.13;5053194;28;20071;-67
2023/10/19 01:20:18;;;;;;;19.58;3.40;;;;;;;17.34;100.00;98864.38;5035344;28;20044;-66
2023/10/19 01:22:53;;;;;;;27.42;4.20;;;;;;;17.41;100.00;98851.25;5053612;28;20053;-68
2023/10/19 01:25:34;;;;;;;23.50;3.88;;;;;;;17.52;100.00;98840.09;5035326;28;20053;-66
2023/10/19 01:28:09;;;;;;;17.55;2.83;;;;;;;17.38;100.00;98842.91;5035542;28;20128;-65
2023/10/19 01:30:37;;;;;;;17.90;3.78;;;;;;;17.46;100.00;98836.94;5052867;28;20060;-67
2023/10/19 01:33:12;;;;;;;23.88;3.70;;;;;;;17.46;100.00;98831.34;5052275;28;20052;-67
2023/10/19 01:38:30;;;;;;;20.10;3.40;;;;;;;17.51;100.00;98819.81;5034949;28;20051;-66
2023/10/19 01:41:06;;;;;;;21.45;3.65;;;;;;;17.44;100.00;98824.56;5053438;28;20057;-66
2023/10/19 01:43:33;;;;;;;21.08;3.85;;;;;;;17.45;100.00;98820.59;5052919;28;20049;-67
2023/10/19 01:46:05;;;;;;;19.70;3.78;;;;;;;17.50;100.00;98809.06;5051536;28;20061;-66
2023/10/19 01:48:35;;;;;;;20.58;3.38;;;;;;;17.41;100.00;98803.91;5049306;28;20049;-67
2023/10/19 01:51:05;;;;;;;19.15;3.22;;;;;;;17.50;100.00;98804.31;5030009;28;20060;-66
2023/10/19 01:53:35;;;;;;;22.92;3.88;;;;;;;17.51;100.00;98802.28;5033231;28;20048;-66
2023/10/19 01:56:09;;;;;;;26.63;3.42;;;;;;;17.47;100.00;98798.75;5053707;28;20049;-65
2023/10/19 01:58:37;;;;;;;27.42;4.15;;;;;;;17.31;100.00;98790.06;5019052;28;20056;-66
2023/10/19 02:01:14;;;;;;;25.92;3.90;;;;;;;17.30;100.00;98794.00;5033707;28;20056;-66
2023/10/19 02:03:43;;;;;;;29.63;4.18;;;;;;;17.40;100.00;98791.19;5029434;28;20052;-66
2023/10/19 02:06:26;;;;;;;25.75;4.10;;;;;;;17.20;100.00;98789.28;5051713;28;20044;-67
2023/10/19 02:11:57;;;;;;;24.98;3.63;;;;;;;17.27;100.00;98775.34;5048379;28;20049;-66
2023/10/19 02:14:28;;;;;;;20.60;3.45;;;;;;;17.28;100.00;98776.94;5034099;28;20108;-66
2023/10/19 02:16:58;;;;;;;18.88;3.80;;;;;;;17.11;100.00;98761.13;5029261;28;20056;-66
2023/10/19 02:19:28;;;;;;;25.08;3.60;;;;;;;17.39;100.00;98761.78;5051645;28;20044;-66
2023/10/19 02:22:03;;;;;;;21.92;3.47;;;;;;;17.49;100.00;98757.38;5034136;28;20048;-66
2023/10/19 02:24:32;;;;;;;22.52;3.42;;;;;;;17.32;100.00;98753.47;5033794;28;20040;-66
2023/10/19 02:27:03;;;;;;;22.75;3.75;;;;;;;17.38;100.00;98754.59;5034335;28;20060;-67
2023/10/19 02:29:31;;;;;;;23.52;4.38;;;;;;;17.57;100.00;98756.13;5033870;28;20064;-65
2023/10/19 02:32:05;;;;;;;26.33;4.13;;;;;;;17.48;100.00;98764.16;5034131;28;20056;-66
2023/10/19 02:34:34;;;;;;;22.75;3.55;;;;;;;17.33;100.00;98760.59;5051366;28;20049;-67
2023/10/19 02:37:02;;;;;;;26.00;3.22;;;;;;;17.17;100.00;98757.53;5052328;28;20142;-66
2023/10/19 02:39:30;;;;;;;29.20;3.83;;;;;;;17.02;100.00;98764.34;5015039;28;20041;-66
2023/10/19 02:42:01;;;;;;;22.80;3.65;;;;;;;17.19;100.00;98749.53;5044830;28;20040;-66
2023/10/19 02:44:30;;;;;;;22.23;3.88;;;;;;;17.28;100.00;98752.69;5051676;28;20491;-67
2023/10/19 02:47:08;;;;;;;27.77;4.15;;;;;;;17.08;100.00;98740.47;5052093;28;20052;-67
2023/10/19 02:49:39;;;;;;;21.15;3.50;;;;;;;16.88;100.00;98745.72;5048955;28;20048;-66
2023/10/19 02:52:06;;;;;;;;;;;;;;;17.05;100.00;98749.59;5052174;28;20044;-67
2023/10/19 02:54:34;;;;;;;28.30;3.97;;;;;;;16.95;100.00;98753.22;5034161;28;19925;-67
2023/10/19 02:57:06;;;;;;;24.15;3.83;;;;;;;16.90;100.00;98753.66;5033988;28;20056;-67
2023/10/19 02:59:34;;;;;;;19.60;3.10;;;;;;;16.90;100.00;98739.75;5031164;28;20669;-67
2023/10/19 03:02:17;;;;;;;17.88;3.45;;;;;;;16.81;100.00;98748.53;5050068;28;20052;-67
2023/10/19 03:04:45;;;;;;;24.15;3.80;;;;;;;16.98;100.00;98749.63;5047285;28;20049;-67
2023/10/19 03:07:15;;;;;;;22.40;3.80;;;;;;;16.95;100.00;98739.31;5052391;28;20048;-67
2023/10/19 03:09:49;;;;;;;30.00;5.22;;;;;;;17.06;100.00;98731.75;5044569;28;20048;-68
2023/10/19 03:12:17;;;;;;;25.55;4.10;;;;;;;17.24;100.00;98735.22;5020494;28;20053;-67
2023/10/19 03:14:48;;;;;;;26.35;4.35;;;;;;;17.15;100.00;98726.53;5030598;28;20045;-61
2023/10/19 03:17:18;;;;;;;28.80;3.97;;;;;;;17.09;100.00;98721.78;5033065;28;20060;-60
2023/10/19 03:19:46;;;;;;;18.60;3.13;;;;;;;17.02;100.00;98722.59;5050656;28;20048;-61
2023/10/19 03:22:17;;;;;;;24.67;3.85;;;;;;;17.12;100.00;98727.31;5051395;28;20044;-62
2023/10/19 03:24:45;;;;;;;32.92;3.55;;;;;;;17.03;100.00;98707.53;5046311;28;20080;-60
2023/10/19 03:27:23;;;;;;;22.27;3.97;;;;;;;17.10;100.00;98712.25;5037502;28;20049;-61
2023/10/19 03:29:55;;;;;;;14.75;3.13;;;;;;;17.10;100.00;98712.25;5050288;28;20681;-61
2023/10/19 03:32:28;;;;;;;23.88;3.42;;;;;;;17.16;100.00;98711.41;5035986;28;20041;-62
2023/10/19 03:34:56;;;;;;;27.27;4.40;;;;;;;17.22;100.00;98709.81;5050785;28;20053;-62
2023/10/19 03:37:31;;;;;;;23.95;3.70;;;;;;;17.00;100.00;98716.66;5055255;28;20049;-60
2023/10/19 03:40:29;;;;;;;26.70;3.78;;;;;;;16.92;100.00;98703.19;5035235;28;20037;-65
2023/10/19 03:43:23;;;;;;;24.92;4.28;;;;;;;16.92;100.00;98712.31;5035094;28;20049;-61
2023/10/19 03:45:52;;;;;;;25.75;4.10;;;;;;;16.96;100.00;98709.53;5048362;28;20052;-61
2023/10/19 03:48:26;;;;;;;20.35;3.47;;;;;;;16.92;100.00;98709.56;5019227;28;20048;-61
2023/10/19 03:50:56;;;;;;;21.23;4.00;;;;;;;16.85;100.00;98695.66;5053569;28;20056;-60
2023/10/19 03:53:24;;;;;;;22.35;3.10;;;;;;;16.74;100.00;98694.91;5054600;28;20060;-60
2023/10/19 03:55:52;;;;;;;26.92;4.03;;;;;;;16.63;100.00;98700.50;5037977;28;20052;-60
2023/10/19 03:58:23;;;;;;;22.80;3.38;;;;;;;16.93;100.00;98691.66;5055249;28;20049;-61
2023/10/19 04:00:51;;;;;;;26.85;4.85;;;;;;;16.96;100.00;98696.44;5049688;28;20045;-60
2023/10/19 04:03:18;;;;;;;24.48;4.50;;;;;;;17.05;100.00;98693.97;5054370;28;20072;-61
2023/10/19 04:05:49;;;;;;;23.23;3.85;;;;;;;17.00;100.00;98680.50;5052805;28;20722;-61
2023/10/19 04:08:26;;;;;;;20.63;3.15;;;;;;;16.91;100.00;98680.16;5055063;28;20071;-60
2023/10/19 04:11:11;;;;;;;21.55;3.85;;;;;;;16.86;100.00;98675.00;5035819;28;20045;-61
2023/10/19 04:13:39;;;;;;;23.55;3.42;;;;;;;16.71;100.00;98676.28;5054713;28;20048;-59
2023/10/19 04:16:10;;;;;;;26.02;9.00;;;;;;;16.81;100.00;98670.66;5053089;28;20052;-62
2023/10/19 04:18:38;;;;;;;19.55;4.65;;;;;;;16.78;100.00;98671.47;5027805;28;20463;-61
2023/10/19 04:21:05;;;;;;;22.65;3.63;;;;;;;16.65;100.00;98659.22;5053637;28;20045;-61
2023/10/19 04:23:34;;;;;;;21.75;3.83;;;;;;;16.69;100.00;98648.88;5054825;28;20048;-60
2023/10/19 04:26:10;;;;;;;22.50;3.80;;;;;;;16.72;100.00;98647.25;5054701;28;20053;-60
2023/10/19 04:28:49;;;;;;;26.38;3.50;;;;;;;16.95;100.00;98647.53;5054700;28;20053;-61
2023/10/19 04:31:18;;;;;;;18.77;3.10;;;;;;;16.70;100.00;98644.13;5036010;28;20545;-60
2023/10/19 04:33:47;;;;;;;22.40;3.63;;;;;;;16.77;100.00;98652.44;5053453;28;20048;-60
2023/10/19 04:36:15;;;;;;;24.45;3.58;;;;;;;16.68;100.00;98640.94;5053286;28;20053;-60
2023/10/19 04:38:44;;;;;;;26.63;4.60;;;;;;;16.79;100.00;98636.09;5036774;28;20048;-61
2023/10/19 04:41:11;;;;;;;27.13;3.70;;;;;;;16.74;100.00;98626.22;5054696;28;20041;-60
2023/10/19 04:43:39;;;;;;;24.73;3.97;;;;;;;16.81;100.00;98625.38;5054075;28;20041;-60
2023/10/19 04:46:13;;;;;;;25.23;3.63;;;;;;;16.58;100.00;98631.44;5046717;28;20056;-60
2023/10/19 04:48:41;;;;;;;24.83;3.53;;;;;;;16.66;100.00;98626.66;5032579;28;20075;-61
2023/10/19 04:51:09;;;;;;;21.88;3.83;;;;;;;16.77;100.00;98624.63;5049771;28;20562;-62
2023/10/19 04:53:37;;;;;;;22.23;3.35;;;;;;;16.70;100.00;98600.41;5017633;28;20057;-61
2023/10/19 04:56:08;;;;;;;26.58;3.83;;;;;;;16.71;100.00;98609.53;5051084;28;20049;-60
2023/10/19 04:58:36;;;;;;;19.13;2.35;;;;;;;16.57;100.00;98606.84;5035650;28;20049;-65
2023/10/19 05:01:05;;;;;;;18.33;3.45;;;;;;;16.54;100.00;98600.13;5031541;28;20041;-61
2023/10/19 05:03:32;;;;;;;22.02;3.70;;;;;;;16.52;100.00;98596.13;5034506;28;20049;-61
2023/10/19 05:06:01;;;;;;;25.00;3.92;;;;;;;16.54;100.00;98586.22;5035702;28;20067;-61
2023/10/19 05:08:29;;;;;;;25.67;3.42;;;;;;;16.52;100.00;98588.59;5053570;28;20499;-62
2023/10/19 05:10:59;;;;;;;20.98;3.38;;;;;;;16.54;100.00;98599.31;5053812;28;20045;-63
2023/10/19 05:13:27;;;;;;;25.27;3.60;;;;;;;16.53;100.00;98619.94;5053586;28;20128;-62
2023/10/19 05:15:55;;;;;;;16.52;3.42;;;;;;;16.78;100.00;98610.31;5053687;28;20419;-62
2023/10/19 05:18:22;;;;;;;18.15;3.20;;;;;;;16.60;100.00;98600.47;5053200;28;20048;-62
2023/10/19 05:20:55;;;;;;;23.65;3.53;;;;;;;16.55;100.00;98601.69;5036069;28;20049;-62
2023/10/19 05:23:52;;;;;;;19.60;3.85;;;;;;;16.55;100.00;98590.56;5035370;28;20060;-63
2023/10/19 05:26:56;;;;;;;17.13;2.90;;;;;;;16.34;100.00;98571.19;5018269;28;20075;-60
2023/10/19 05:29:26;;;;;;;23.67;3.72;;;;;;;16.50;100.00;98565.97;5050711;28;20053;-64
2023/10/19 05:32:16;;;;;;;27.83;3.80;;;;;;;16.51;100.00;98562.00;5022696;28;20076;-64
2023/10/19 05:34:53;;;;;;;22.13;3.60;;;;;;;16.60;100.00;98550.44;5022100;28;20053;-62
2023/10/19 05:37:25;;;;;;;23.70;3.63;;;;;;;16.43;100.00;98540.16;5034202;28;20053;-68
2023/10/19 05:40:12;;;;;;;18.17;3.28;;;;;;;16.46;100.00;98533.78;5018137;28;20050;-68
2023/10/19 05:42:46;;;;;;;16.23;3.13;;;;;;;16.42;100.00;98539.38;5034239;28;20488;-70
2023/10/19 05:45:26;;;;;;;23.33;3.25;;;;;;;16.62;100.00;98540.50;5019638;28;20124;-72
2023/10/19 05:48:13;;;;;;;20.90;3.50;;;;;;;16.57;100.00;98545.69;5033368;28;20049;-68
2023/10/19 05:50:47;;;;;;;17.73;3.13;;;;;;;16.37;100.00;98544.59;5023531;28;20074;-73
2023/10/19 05:53:24;;;;;;;20.13;3.60;;;;;;;16.37;100.00;98550.91;5017595;28;20049;-70
2023/10/19 05:56:00;;;;;;;20.48;3.75;;;;;;;16.43;100.00;98549.31;5004835;28;20056;-69
2023/10/19 05:58:27;;;;;;;27.80;3.97;;;;;;;16.40;100.00;98549.31;5052958;28;20051;-68
2023/10/19 06:01:00;;;;;;;17.70;3.20;;;;;;;16.45;100.00;98546.13;5050812;28;20041;-71
2023/10/19 06:03:28;;;;;;;12.70;2.75;;;;;;;16.41;100.00;98548.91;5052534;28;20048;-71
2023/10/19 06:05:59;;;;;;;19.90;3.20;;;;;;;16.47;100.00;98543.75;5053398;28;20441;-69
2023/10/19 06:08:28;;;;;;;16.65;3.42;;;;;;;16.37;100.00;98530.69;5034230;28;20049;-70
2023/10/19 06:10:55;;;;;;;17.45;3.20;;;;;;;16.41;100.00;98512.78;5034948;28;20041;-70
2023/10/19 06:13:23;;;;;;;20.10;3.88;;;;;;;16.37;100.00;98516.78;5052140;28;20051;-69
2023/10/19 06:15:59;;;;;;;18.05;4.03;;;;;;;16.41;100.00;98506.44;5035054;28;20048;-72
2023/10/19 06:18:46;;;;;;;17.83;3.25;;;;;;;16.32;100.00;98506.09;5051897;28;20484;-72
2023/10/19 06:21:25;;;;;;;20.27;3.75;;;;;;;16.45;100.00;98505.22;5050127;28;20041;-72
2023/10/19 06:23:54;;;;;;;15.60;3.40;;;;;;;16.44;100.00;98509.19;5052676;28;20057;-69
2023/10/19 06:26:21;;;;;;;18.40;3.10;;;;;;;16.40;100.00;98505.66;5051804;28;20037;-70
2023/10/19 06:28:50;;;;;;;11.63;3.13;;;;;;;16.43;100.00;98512.38;5018370;28;20067;-68
2023/10/19 06:31:21;;;;;;;19.50;3.95;;;;;;;16.48;100.00;98515.56;5033678;28;20041;-71
2023/10/19 06:33:52;;;;;;;21.50;3.50;;;;;;;16.45;100.00;98521.09;5053111;28;20060;-69
2023/10/19 06:36:19;;;;;;;19.70;3.65;;;;;;;16.45;100.00;98518.34;5031820;28;20053;-68
2023/10/19 06:38:50;;;;;;;18.08;3.97;;;;;;;16.54;100.00;98518.72;5051994;28;20045;-69
2023/10/19 06:41:18;;;;;;;15.93;2.92;;;;;;;16.55;100.00;98520.28;5052303;28;20045;-67
2023/10/19 06:43:46;;;;;;;17.08;3.83;;;;;;;16.62;100.00;98520.25;5051853;28;20045;-66
2023/10/19 06:46:14;;;;;;;16.13;3.45;;;;;;;16.68;100.00;98522.19;5051721;28;20513;-67
2023/10/19 06:48:44;;;;;;;16.83;3.17;;;;;;;16.69;100.00;98515.44;5049860;28;20045;-67
2023/10/19 06:51:16;;;;;;;16.58;3.58;;;;;;;16.63;100.00;98510.72;5051319;28;20051;-67
2023/10/19 06:53:50;;;;;;;16.98;3.63;;;;;;;16.51;100.00;98513.97;5050140;28;20060;-68
2023/10/19 06:56:21;;;;;;;24.60;4.13;;;;;;;16.53;100.00;98514.34;5030471;28;20052;-68
2023/10/19 06:58:50;;;;;;;21.15;3.40;;;;;;;16.34;100.00;98514.81;5041404;28;20041;-66
2023/10/19 07:01:18;;;;;;;25.20;3.70;;;;;;;16.41;100.00;98510.00;5039681;28;20037;-67
2023/10/19 07:03:47;;;;;;;;;;;;;;;16.31;100.00;98512.84;5043567;28;20079;-67
2023/10/19 07:06:14;;;;;;;17.73;3.85;;;;;;;16.25;100.00;98508.94;5048889;28;19929;-66
2023/10/19 07:08:42;;;;;;;19.55;3.88;;;;;;;16.57;100.00;98506.78;5029805;28;20041;-66
2023/10/19 07:11:12;;;;;;;13.60;3.60;;;;;;;16.53;100.00;98504.00;5046584;28;20037;-68
2023/10/19 07:13:43;;;;;;;20.60;3.92;;;;;;;16.67;100.00;98500.34;5013010;28;20060;-69
2023/10/19 07:16:14;;;;;;;15.25;3.78;;;;;;;16.46;100.00;98492.09;5030507;28;20053;-67
2023/10/19 07:18:41;;;;;;;15.70;3.90;;;;;;;16.79;100.00;98497.09;5050023;28;20041;-68
2023/10/19 07:21:09;;;;;;;16.50;3.83;;;;;;;16.84;100.00;98489.09;5047154;28;20061;-71
2023/10/19 07:23:40;;;;;;;18.65;3.72;;;;;;;16.95;100.00;98485.44;5049700;28;20063;-68
2023/10/19 07:26:10;;;;;;;14.13;3.15;;;;;;;16.99;100.00;98489.78;5047651;28;20045;-67
2023/10/19 07:28:42;;;;;;;22.35;3.60;;;;;;;17.18;100.00;98477.31;5047830;28;20053;-67
2023/10/19 07:31:15;;;;;;;16.50;4.13;;;;;;;17.01;100.00;98476.28;5012557;28;20527;-66
2023/10/19 07:33:45;;;;;;;13.02;3.63;;;;;;;16.98;100.00;98473.53;5045038;28;20052;-69
2023/10/19 07:36:14;;;;;;;;;;;;;;;17.05;100.00;98481.81;5051204;28;20045;-68
2023/10/19 07:38:51;;;;;;;18.85;3.85;;;;;;;17.05;100.00;98467.91;5049558;28;19929;-71
2023/10/19 07:41:21;;;;;;;;;;;;;;;16.94;100.00;98458.84;5029627;28;20493;-70
2023/10/19 07:43:49;;;;;;;18.38;3.40;;;;;;;16.92;100.00;98455.69;5046118;28;19937;-68
2023/10/19 07:46:16;;;;;;;16.45;2.97;;;;;;;16.82;100.00;98451.81;5046085;28;20059;-68
2023/10/19 07:48:44;;;;;;;25.10;3.92;;;;;;;16.98;100.00;98454.81;5029303;28;20045;-68
2023/10/19 07:51:11;;;;;;;19.33;2.90;;;;;;;17.04;100.00;98460.72;5012810;28;20060;-71
2023/10/19 07:53:39;;;;;;;18.55;2.90;;;;;;;17.18;100.00;98453.06;5049039;28;20041;-69
2023/10/19 07:56:06;;;;;;;20.02;3.38;;;;;;;17.05;100.00;98460.31;5045138;28;20520;-70
2023/10/19 07:58:34;;;;;;;16.13;2.63;;;;;;;16.92;100.00;98462.03;5027731;28;20046;-70
2023/10/19 08:01:01;;;;;;;13.95;3.35;;;;;;;16.94;100.00;98464.41;5048839;28;20681;-72
2023/10/19 08:03:29;;;;;;;16.08;3.75;;;;;;;17.11;100.00;98466.25;5043924;28;20049;-70
2023/10/19 08:05:57;;;;;;;17.30;3.13;;;;;;;17.01;100.00;98465.16;5044113;28;20045;-71
2023/10/19 08:08:24;;;;;;;24.95;3.92;;;;;;;17.03;100.00;98467.50;5048437;28;20053;-71
2023/10/19 08:10:51;;;;;;;15.23;3.00;;;;;;;17.07;100.00;98466.28;5048477;28;20033;-70
2023/10/19 08:13:19;;;;;;;15.48;4.00;;;;;;;17.05;100.00;98467.91;5052142;28;20041;-72
2023/10/19 08:15:46;;;;;;;16.45;3.58;;;;;;;17.16;100.00;98463.81;5014579;28;20052;-72
2023/10/19 08:18:14;;;;;;;15.48;3.50;;;;;;;17.03;100.00;98457.19;5018817;28;20428;-71
2023/10/19 08:20:45;;;;;;;15.88;3.30;;;;;;;17.17;100.00;98457.06;5052250;28;20056;-71
2023/10/19 08:23:23;;;;;;;16.60;3.20;;;;;;;17.26;100.00;98459.34;5055310;28;20615;-70
2023/10/19 08:25:53;;;;;;;10.02;2.72;;;;;;;17.34;100.00;98456.09;5052208;28;20060;-71
2023/10/19 08:28:24;;;;;;;14.00;2.78;;;;;;;17.41;100.00;98450.44;5030683;28;20053;-72
2023/10/19 08:31:00;;;;;;;13.23;2.72;;;;;;;17.31;100.00;98453.34;5054132;28;20048;-71
2023/10/19 08:33:29;;;;;;;12.55;2.50;;;;;;;17.31;100.00;98448.53;5052849;28;20060;-70
2023/10/19 08:35:57;;;;;;;17.83;2.17;;;;;;;17.56;100.00;98437.97;5054870;28;20060;-71
2023/10/19 08:38:26;;;;;;;12.02;2.47;;;;;;;17.58;100.00;98443.94;5052726;28;20051;-70
2023/10/19 08:40:53;;;;;;;11.68;3.00;;;;;;;17.73;100.00;98442.53;5034148;28;20428;-70
2023/10/19 08:43:21;;;;;;;8.95;2.22;;;;;;;17.73;100.00;98445.34;5053862;28;20052;-71
2023/10/19 08:45:49;;;;;;;13.93;2.47;;;;;;;17.75;100.00;98440.13;5034967;28;20778;-73
2023/10/19 08:48:17;;;;;;;15.25;4.07;;;;;;;17.90;100.00;98443.56;5045094;28;20766;-71
2023/10/19 08:50:50;;;;;;;14.38;6.97;;;;;;;18.14;100.00;98452.78;5053407;28;20048;-73
2023/10/19 08:53:32;;;;;;;12.38;5.43;;;;;;;18.07;100.00;98455.66;5032790;28;20635;-72
2023/10/19 08:56:06;;;;;;;10.15;2.40;;;;;;;18.01;100.00;98444.19;5042430;28;20068;-74
2023/10/19 08:58:36;;;;;;;10.25;2.83;;;;;;;18.03;100.00;98441.00;5050757;28;20041;-71
2023/10/19 09:01:09;;;;;;;11.45;2.60;;;;;;;18.11;100.00;98436.91;5035115;28;20041;-74
2023/10/19 09:04:00;;;;;;;10.75;2.03;;;;;;;18.35;99.34;98444.94;5050781;28;20040;-71
2023/10/19 09:06:45;;;;;;;10.50;2.38;;;;;;;18.31;98.31;98440.59;5013702;28;20064;-73
2023/10/19 09:09:19;;;;;;;;;;;;;;;18.35;98.32;98435.78;5016622;28;20053;-73
2023/10/19 09:11:55;;;;;;;21.65;7.28;;;;;;;18.40;97.90;98432.50;5033416;28;19940;-74
2023/10/19 09:14:41;;;;;;;10.35;2.72;;;;;;;18.51;97.58;98439.56;5048996;28;20049;-74
2023/10/19 09:17:13;;;;;;;14.50;4.05;;;;;;;18.54;95.93;98441.50;5034201;28;20064;-65
2023/10/19 09:19:48;;;;;;;6.65;2.00;;;;;;;18.56;96.18;98424.34;5052045;28;20045;-67
2023/10/19 09:22:19;;;;;;;8.10;2.38;;;;;;;18.53;96.75;98431.53;5041274;28;20053;-69
2023/10/19 09:24:59;;;;;;;9.65;2.17;;;;;;;18.48;97.26;98428.44;5033509;28;20484;-68
2023/10/19 09:27:51;;;;;;;8.60;2.88;;;;;;;18.56;95.97;98427.13;5030238;28;20045;-65
2023/10/19 09:30:22;;;;;;;8.68;2.05;;;;;;;18.67;96.99;98420.16;5049650;28;20061;-65
2023/10/19 09:32:57;;;;;;;13.02;2.17;;;;;;;18.73;97.03;98412.09;5049858;28;20048;-66
2023/10/19 09:35:27;;;;;;;16.75;2.60;;;;;;;18.61;96.49;98412.69;5032869;28;20053;-65
2023/10/19 09:37:56;;;;;;;12.02;2.45;;;;;;;18.61;97.14;98398.75;5013185;28;20056;-66
2023/10/19 09:40:23;;;;;;;10.07;2.30;;;;;;;18.55;96.47;98392.88;5047411;28;20064;-65
2023/10/19 09:42:53;;;;;;;13.52;2.38;;;;;;;18.81;95.86;98389.25;5032224;28;20079;-64
2023/10/19 09:45:24;;;;;;;8.38;2.17;;;;;;;18.85;94.70;98389.19;5050938;28;20544;-65
2023/10/19 09:47:51;;;;;;;13.57;2.45;;;;;;;18.78;94.13;98386.50;5034655;28;20060;-65
2023/10/19 09:50:19;;;;;;;11.15;2.00;;;;;;;18.66;94.61;98390.72;5030104;28;20071;-65
2023/10/19 09:52:46;;;;;;;12.70;2.10;;;;;;;18.76;94.90;98384.16;5051579;28;20041;-63
2023/10/19 09:55:25;;;;;;;22.30;7.78;;;;;;;18.85;94.50;98383.59;5031733;28;20084;-66
2023/10/19 09:58:06;;;;;;;12.57;2.60;;;;;;;18.91;93.97;98381.91;5030634;28;20060;-65
2023/10/19 10:00:34;;;;;;;15.85;2.50;;;;;;;18.89;94.03;98382.34;5049459;28;20053;-66
2023/10/19 10:03:02;;;;;;;14.68;2.40;;;;;;;18.99;93.35;98386.94;5032593;28;20531;-66
2023/10/19 10:05:42;;;;;;;13.93;5.90;;;;;;;18.82;93.91;98385.25;5032713;28;20051;-66
2023/10/19 10:08:18;;;;;;;17.35;6.35;;;;;;;19.00;93.41;98377.34;5031418;28;20060;-66
2023/10/19 10:10:53;;;;;;;11.93;4.28;;;;;;;18.92;93.41;98386.28;5048005;28;20045;-69
2023/10/19 10:13:26;;;;;;;9.68;2.58;;;;;;;18.84;94.48;98385.63;5046985;28;20041;-69
2023/10/19 10:15:55;;;;;;;10.05;3.53;;;;;;;18.88;93.85;98391.16;5049068;28;20061;-68
2023/10/19 10:18:27;;;;;;;10.05;4.25;;;;;;;18.99;93.75;98375.78;5051714;28;20071;-68
2023/10/19 10:21:08;;;;;;;19.20;8.13;;;;;;;19.04;93.33;98377.28;5047529;28;20049;-66
2023/10/19 10:23:47;;;;;;;;;;;;;;;19.04;93.08;98363.34;5044957;28;20048;-68
2023/10/19 10:26:16;;;;;;;8.40;2.35;;;;;;;19.13;92.48;98358.00;5034814;28;20299;-68
2023/10/19 10:28:51;;;;;;;6.87;2.13;;;;;;;19.36;90.83;98360.75;5051645;28;20045;-68
2023/10/19 10:31:25;;;;;;;9.68;2.53;;;;;;;19.41;90.32;98360.25;5034001;28;20210;-67
2023/10/19 10:33:56;;;;;;;11.77;5.35;;;;;;;19.50;90.02;98359.69;5047959;28;20033;-66
2023/10/19 10:36:26;;;;;;;20.45;7.47;;;;;;;19.56;90.00;98360.78;5032438;28;20037;-67
2023/10/19 10:39:04;;;;;;;19.02;10.40;;;;;;;19.52;89.43;98351.69;5051055;28;20072;-66
2023/10/19 10:41:32;;;;;;;11.07;5.15;;;;;;;19.69;89.09;98348.50;5033438;28;20052;-67
2023/10/19 10:43:59;;;;;;;8.38;3.45;;;;;;;19.79;87.87;98343.91;5034729;28;20059;-67
2023/10/19 10:46:29;;;;;;;16.45;8.07;;;;;;;19.74;87.57;98348.00;5052793;28;20047;-67
2023/10/19 10:49:02;;;;;;;38.40;25.83;;;;;;;19.64;88.18;98339.84;5033302;28;20440;-70
2023/10/19 10:51:35;;;;;;;10.10;3.13;;;;;;;19.82;87.12;98335.44;5011327;28;20053;-67
2023/10/19 10:54:06;;;;;;;10.20;2.75;;;;;;;19.76;85.66;98328.81;5025809;28;20052;-68
2023/10/19 10:56:39;;;;;;;10.73;2.80;;;;;;;19.71;86.46;98326.53;5012301;28;20045;-67
2023/10/19 10:59:16;;;;;;;7.18;2.50;;;;;;;19.80;85.78;98318.34;5034478;28;20056;-69
2023/10/19 11:01:52;;;;;;;8.57;2.15;;;;;;;19.76;86.19;98308.47;5027554;28;20037;-74
2023/10/19 11:04:19;;;;;;;9.77;2.20;;;;;;;19.70;85.47;98307.41;5024320;28;20504;-73
2023/10/19 11:06:56;;;;;;;13.65;3.40;;;;;;;20.02;84.14;98308.25;5030487;28;20059;-73
2023/10/19 11:09:28;;;;;;;13.25;4.13;;;;;;;19.97;84.05;98305.97;5016116;28;20049;-72
2023/10/19 11:11:55;;;;;;;13.25;4.30;;;;;;;20.08;83.45;98306.50;5035982;28;20048;-73
2023/10/19 11:14:24;;;;;;;13.80;4.60;;;;;;;20.27;82.42;98310.50;5049358;28;20080;-74
2023/10/19 11:16:52;;;;;;;15.73;6.60;;;;;;;20.34;80.91;98304.75;5013355;28;20049;-73
2023/10/19 11:19:21;;;;;;;19.00;6.70;;;;;;;20.25;82.18;98290.56;5042364;28;20055;-75
2023/10/19 11:21:53;;;;;;;12.95;4.00;;;;;;;20.22;82.13;98299.84;5043911;28;20049;-73
2023/10/19 11:24:26;;;;;;;16.55;4.07;;;;;;;20.38;81.68;98299.06;5016822;28;20056;-73
2023/10/19 11:26:55;;;;;;;16.27;5.70;;;;;;;20.36;81.61;98296.72;5055591;28;20049;-73
2023/10/19 11:29:24;;;;;;;17.58;4.97;;;;;;;20.42;81.45;98296.94;5057805;28;20041;-73
2023/10/19 11:31:59;;;;;;;18.38;6.00;;;;;;;20.30;81.82;98298.44;5047951;28;20056;-73
2023/10/19 11:34:28;;;;;;;16.20;4.97;;;;;;;20.63;81.18;98290.81;5051970;28;20049;-72
2023/10/19 11:36:59;;;;;;;13.10;4.13;;;;;;;20.56;80.31;98291.78;5034370;28;20060;-73
2023/10/19 11:39:28;;;;;;;17.42;4.07;;;;;;;20.72;79.56;98282.59;5051099;28;20052;-73
2023/10/19 11:41:56;;;;;;;11.20;2.47;;;;;;;20.72;77.78;98274.19;5052361;28;20060;-72
2023/10/19 11:44:23;;;;;;;10.30;2.45;;;;;;;20.82;76.68;98278.72;5054480;28;20052;-73
2023/10/19 11:47:03;;;;;;;12.10;2.92;;;;;;;20.99;76.17;98271.91;5056163;28;20052;-74
2023/10/19 11:49:37;;;;;;;11.68;2.20;;;;;;;21.19;73.58;98272.50;5031383;28;20052;-72
2023/10/19 11:52:13;;;;;;;8.23;2.30;;;;;;;21.21;72.62;98276.47;5020826;28;20056;-72